createdAt,value
2022-08-01T00:01:30.112Z,60.04
2022-08-01T00:03:32.816Z,60.03
2022-08-01T00:05:35.789Z,59.91
2022-08-01T00:07:39.101Z,60.83
2022-08-01T00:09:41.881Z,60.86
2022-08-01T00:11:44.575Z,60.95
2022-08-01T00:13:48.723Z,60.64
2022-08-01T00:15:54.428Z,61.22
2022-08-01T00:17:57.263Z,61.48
2022-08-01T00:20:00.185Z,61.26
2022-08-01T00:22:03.107Z,61.53
2022-08-01T00:24:06.155Z,61.91
2022-08-01T00:26:17.135Z,62.26
2022-08-01T00:28:19.818Z,62.49
2022-08-01T00:30:23.857Z,62.67
2022-08-01T00:32:26.584Z,62.41
2022-08-01T00:34:29.278Z,62.99
2022-08-01T00:36:32.129Z,63.01
2022-08-01T00:38:34.915Z,62.97
2022-08-01T00:40:37.652Z,63.22
2022-08-01T00:42:43.683Z,63.44
2022-08-01T00:44:46.982Z,64.14
2022-08-01T00:46:51.264Z,64.30
2022-08-01T00:48:54.314Z,64.33
2022-08-01T00:50:57.099Z,64.32
2022-08-01T00:53:00.646Z,64.45
2022-08-01T00:55:03.836Z,64.37
2022-08-01T00:57:09.893Z,65.03
2022-08-01T00:59:16.011Z,65.10
2022-08-01T01:01:21.477Z,65.13
2022-08-01T01:05:56.922Z,65.27
2022-08-01T01:08:05.126Z,65.66
2022-08-01T01:10:13.989Z,66.14
2022-08-01T01:12:25.576Z,66.03
2022-08-01T01:14:35.627Z,66.37
2022-08-01T01:16:42.031Z,66.49
2022-08-01T01:18:49.176Z,66.81
2022-08-01T01:21:02.478Z,67.54
2022-08-01T01:23:31.124Z,67.49
2022-08-01T01:25:52.527Z,67.59
2022-08-01T01:28:10.450Z,67.71
2022-08-01T01:30:14.776Z,68.12
2022-08-01T01:32:28.637Z,67.98
2022-08-01T01:34:37.879Z,67.92
2022-08-01T01:36:41.785Z,68.24
2022-08-01T01:38:47.154Z,68.52
2022-08-01T01:40:52.304Z,68.40
2022-08-01T01:42:57.767Z,68.54
2022-08-01T01:45:02.203Z,68.56
2022-08-01T01:47:06.772Z,69.15
2022-08-01T01:49:12.026Z,69.33
2022-08-01T01:51:16.029Z,69.20
2022-08-01T01:53:22.523Z,69.93
2022-08-01T01:55:27.638Z,69.70
2022-08-01T01:57:33.021Z,69.72
2022-08-01T01:59:40.559Z,70.08
2022-08-01T02:02:05.147Z,70.68
2022-08-01T02:04:08.247Z,70.84
2022-08-01T02:06:13.823Z,70.57
2022-08-01T02:08:18.344Z,71.23
2022-08-01T02:10:21.656Z,71.35
2022-08-01T02:12:34.864Z,71.76
2022-08-01T02:14:38.821Z,71.86
2022-08-01T02:16:44.784Z,72.03
2022-08-01T02:18:47.751Z,72.42
2022-08-01T02:20:54.567Z,72.86
2022-08-01T02:23:02.382Z,73.66
2022-08-01T02:25:12.378Z,73.57
2022-08-01T02:27:19.576Z,74.25
2022-08-01T02:29:29.289Z,74.02
2022-08-01T02:31:35.607Z,74.79
2022-08-01T02:33:42.511Z,75.52
2022-08-01T02:36:31.014Z,74.99
2022-08-01T02:38:15.951Z,75.25
2022-08-01T02:40:20.506Z,74.89
2022-08-01T02:42:27.639Z,75.25
2022-08-01T02:44:33.521Z,76.05
2022-08-01T02:46:40.566Z,76.11
2022-08-01T02:48:44.835Z,76.78
2022-08-01T02:50:50.747Z,76.58
2022-08-01T02:52:56.093Z,76.94
2022-08-01T02:55:01.804Z,77.39
2022-08-01T02:57:06.650Z,77.62
2022-08-01T02:59:14.385Z,77.58
2022-08-01T03:01:19.968Z,78.38
2022-08-01T03:03:24.378Z,78.05
2022-08-01T03:05:28.068Z,78.21
2022-08-01T03:07:34.706Z,78.43
2022-08-01T03:09:46.753Z,77.99
2022-08-01T03:11:52.104Z,78.54
2022-08-01T03:13:55.974Z,78.79
2022-08-01T03:15:59.882Z,78.57
2022-08-01T03:18:04.305Z,78.45
2022-08-01T03:20:09.643Z,78.29
2022-08-01T03:22:14.683Z,79.19
2022-08-01T03:24:18.844Z,78.96
2022-08-01T03:26:21.968Z,78.73
2022-08-01T03:28:29.660Z,79.30
2022-08-01T03:30:34.523Z,80.03
2022-08-01T03:32:37.217Z,80.36
2022-08-01T03:34:39.922Z,80.35
2022-08-01T03:36:50.042Z,79.87
2022-08-01T03:38:54.551Z,79.96
2022-08-01T03:41:00.939Z,80.92
2022-08-01T03:43:08.137Z,81.19
2022-08-01T03:45:17.835Z,81.94
2022-08-01T03:47:23.542Z,82.19
2022-08-01T03:49:31.935Z,82.39
2022-08-01T03:51:35.420Z,81.88
2022-08-01T03:53:42.289Z,82.17
2022-08-01T03:55:45.914Z,82.24
2022-08-01T03:57:50.191Z,82.40
2022-08-01T03:59:54.424Z,82.67
2022-08-01T04:01:59.912Z,82.82
2022-08-01T04:04:05.955Z,82.41
2022-08-01T04:06:11.327Z,82.56
2022-08-01T04:08:13.964Z,83.43
2022-08-01T04:10:16.617Z,84.07
2022-08-01T04:12:19.793Z,83.98
2022-08-01T04:14:22.441Z,83.60
2022-08-01T04:16:25.175Z,83.70
2022-08-01T04:18:29.231Z,84.46
2022-08-01T04:20:31.846Z,84.10
2022-08-01T04:22:37.382Z,83.76
2022-08-01T04:24:41.731Z,83.91
2022-08-01T04:26:47.364Z,83.72
2022-08-01T04:28:53.011Z,83.58
2022-08-01T04:31:01.802Z,83.25
2022-08-01T04:33:08.593Z,83.70
2022-08-01T04:35:22.796Z,83.57
2022-08-01T04:37:42.849Z,83.71
2022-08-01T04:39:50.574Z,83.49
2022-08-01T04:41:57.338Z,83.37
2022-08-01T04:44:01.483Z,83.88
2022-08-01T04:46:05.593Z,82.99
2022-08-01T04:48:09.507Z,79.47
2022-08-01T04:50:13.850Z,75.94
2022-08-01T04:52:22.976Z,74.90
2022-08-01T04:54:28.321Z,72.12
2022-08-01T04:56:31.089Z,70.52
2022-08-01T04:58:33.832Z,68.53
2022-08-01T05:00:36.457Z,67.19
2022-08-01T05:02:39.138Z,68.56
2022-08-01T05:04:42.722Z,70.38
2022-08-01T05:06:46.745Z,71.31
2022-08-01T05:08:49.421Z,72.24
2022-08-01T05:10:52.074Z,74.60
2022-08-01T05:12:54.800Z,76.11
2022-08-01T05:14:57.462Z,79.19
2022-08-01T05:17:00.773Z,81.71
2022-08-01T05:19:03.546Z,82.80
2022-08-01T05:21:06.344Z,81.73
2022-08-01T05:23:17.922Z,81.33
2022-08-01T05:25:56.059Z,80.15
2022-08-01T05:27:52.006Z,79.19
2022-08-01T05:29:54.699Z,79.52
2022-08-01T05:31:57.535Z,80.83
2022-08-01T05:34:00.205Z,81.44
2022-08-01T05:36:02.847Z,80.96
2022-08-01T05:38:05.565Z,81.92
2022-08-01T05:40:10.942Z,81.77
2022-08-01T05:42:13.660Z,82.35
2022-08-01T05:44:16.364Z,82.79
2022-08-01T05:46:18.996Z,83.48
2022-08-01T05:48:21.656Z,82.32
2022-08-01T05:50:24.338Z,82.48
2022-08-01T05:52:27.077Z,83.57
2022-08-01T05:54:29.759Z,83.71
2022-08-01T05:56:33.904Z,83.50
2022-08-01T05:58:36.584Z,82.97
2022-08-01T06:00:39.291Z,82.70
2022-08-01T06:02:43.473Z,80.34
2022-08-01T06:04:46.186Z,79.51
2022-08-01T06:06:48.940Z,78.00
2022-08-01T06:08:52.823Z,76.96
2022-08-01T06:10:55.586Z,74.39
2022-08-01T06:13:00.566Z,74.99
2022-08-01T06:15:03.301Z,74.53
2022-08-01T06:17:06.020Z,73.15
2022-08-01T06:19:08.754Z,71.77
2022-08-01T06:21:11.501Z,72.91
2022-08-01T06:23:31.731Z,74.49
2022-08-01T06:25:35.965Z,71.82
2022-08-01T06:27:39.515Z,69.33
2022-08-01T06:29:53.276Z,67.61
2022-08-01T06:31:57.054Z,69.90
2022-08-01T06:33:59.735Z,69.72
2022-08-01T06:36:02.492Z,69.68
2022-08-01T06:38:05.432Z,67.97
2022-08-01T06:40:16.299Z,69.27
2022-08-01T06:42:19.772Z,68.97
2022-08-01T06:44:22.520Z,67.84
2022-08-01T06:46:30.239Z,67.49
2022-08-01T06:48:36.281Z,65.79
2022-08-01T06:50:39.078Z,67.04
2022-08-01T06:52:42.302Z,64.85
2022-08-01T06:54:45.008Z,66.11
2022-08-01T06:56:47.699Z,63.37
2022-08-01T06:58:51.262Z,65.14
2022-08-01T07:00:57.547Z,63.17
2022-08-01T07:03:02.036Z,60.66
2022-08-01T07:05:05.065Z,62.29
2022-08-01T07:07:07.841Z,59.28
2022-08-01T07:09:14.079Z,60.37
2022-08-01T07:11:17.412Z,59.71
2022-08-01T07:13:22.356Z,58.49
2022-08-01T07:15:27.508Z,58.94
2022-08-01T07:17:30.314Z,57.47
2022-08-01T07:19:34.466Z,60.87
2022-08-01T07:21:41.954Z,62.00
2022-08-01T07:23:47.867Z,62.72
2022-08-01T07:25:52.668Z,59.28
2022-08-01T07:27:56.189Z,54.58
2022-08-01T07:29:58.966Z,53.83
2022-08-01T07:32:01.681Z,54.09
2022-08-01T07:34:04.687Z,57.69
2022-08-01T07:36:09.240Z,58.47
2022-08-01T07:38:12.899Z,56.21
2022-08-01T07:40:16.184Z,54.62
2022-08-01T07:42:18.914Z,56.53
2022-08-01T07:44:21.668Z,56.75
2022-08-01T07:46:24.414Z,59.37
2022-08-01T07:48:28.042Z,60.97
2022-08-01T07:50:30.963Z,59.15
2022-08-01T07:52:38.319Z,58.78
2022-08-01T07:54:41.108Z,57.92
2022-08-01T07:56:44.040Z,56.39
2022-08-01T07:58:47.560Z,56.53
2022-08-01T08:00:51.191Z,55.04
2022-08-01T08:02:54.692Z,56.43
2022-08-01T08:04:57.438Z,60.79
2022-08-01T08:07:00.148Z,61.38
2022-08-01T08:09:04.257Z,57.14
2022-08-01T08:11:07.104Z,55.09
2022-08-01T08:13:09.820Z,54.77
2022-08-01T08:15:12.569Z,51.70
2022-08-01T08:17:15.257Z,51.51
2022-08-01T08:19:18.068Z,52.69
2022-08-01T08:21:20.734Z,52.32
2022-08-01T08:23:43.611Z,55.13
2022-08-01T08:25:47.967Z,56.97
2022-08-01T08:27:50.743Z,55.12
2022-08-01T08:29:53.695Z,58.26
2022-08-01T08:31:57.153Z,57.02
2022-08-01T08:33:59.948Z,59.47
2022-08-01T08:36:02.665Z,58.76
2022-08-01T08:38:05.415Z,58.56
2022-08-01T08:40:11.967Z,58.64
2022-08-01T08:42:16.034Z,54.66
2022-08-01T08:44:20.963Z,52.89
2022-08-01T08:46:28.345Z,50.92
2022-08-01T08:48:32.274Z,53.28
2022-08-01T08:50:35.640Z,54.24
2022-08-01T08:52:40.578Z,54.43
2022-08-01T08:54:44.858Z,53.31
2022-08-01T08:56:49.135Z,51.95
2022-08-01T08:58:53.981Z,52.51
2022-08-01T09:00:56.897Z,55.50
2022-08-01T09:02:59.678Z,56.08
2022-08-01T09:05:03.193Z,57.42
2022-08-01T09:07:06.711Z,58.08
2022-08-01T09:09:10.535Z,57.83
2022-08-01T09:11:22.579Z,54.43
2022-08-01T09:13:25.499Z,53.85
2022-08-01T09:15:40.403Z,53.65
2022-08-01T09:17:43.508Z,55.63
2022-08-01T09:19:49.552Z,58.73
2022-08-01T09:21:58.865Z,58.04
2022-08-01T09:24:03.876Z,58.30
2022-08-01T09:26:06.977Z,59.71
2022-08-01T09:28:11.270Z,59.51
2022-08-01T09:30:19.685Z,62.07
2022-08-01T09:32:31.441Z,62.92
2022-08-01T09:34:37.244Z,64.36
2022-08-01T09:37:04.679Z,59.25
2022-08-01T09:39:15.067Z,55.05
2022-08-01T09:41:18.008Z,57.19
2022-08-01T09:43:24.953Z,59.13
2022-08-01T09:45:41.870Z,55.94
2022-08-01T09:47:48.035Z,56.47
2022-08-01T09:49:57.427Z,56.60
2022-08-01T09:52:13.018Z,55.23
2022-08-01T09:54:30.437Z,59.04
2022-08-01T09:56:39.357Z,58.25
2022-08-01T09:59:02.030Z,60.13
2022-08-01T10:01:05.937Z,63.24
2022-08-01T10:03:23.992Z,62.72
2022-08-01T10:05:36.985Z,63.67
2022-08-01T10:07:58.953Z,62.34
2022-08-01T10:10:12.138Z,62.13
2022-08-01T10:12:17.364Z,58.90
2022-08-01T10:14:21.508Z,55.44
2022-08-01T10:16:26.225Z,53.39
2022-08-01T10:18:34.145Z,51.35
2022-08-01T10:20:36.980Z,53.16
2022-08-01T10:22:42.595Z,52.06
2022-08-01T10:24:48.092Z,52.21
2022-08-01T10:26:55.864Z,50.23
2022-08-01T10:28:58.723Z,50.88
2022-08-01T10:31:04.219Z,53.65
2022-08-01T10:33:51.230Z,51.24
2022-08-01T10:35:47.334Z,53.59
2022-08-01T10:37:52.889Z,52.68
2022-08-01T10:40:14.005Z,51.92
2022-08-01T10:42:20.316Z,52.27
2022-08-01T10:44:23.700Z,52.26
2022-08-01T10:46:27.617Z,50.60
2022-08-01T10:48:36.994Z,51.28
2022-08-01T10:50:44.614Z,51.98
2022-08-01T10:53:24.276Z,54.12
2022-08-01T10:55:47.732Z,54.74
2022-08-01T10:57:53.059Z,56.80
2022-08-01T10:59:59.292Z,57.12
2022-08-01T11:02:06.832Z,58.17
2022-08-01T11:04:16.577Z,58.01
2022-08-01T11:06:26.372Z,60.54
2022-08-01T11:08:31.808Z,60.73
2022-08-01T11:10:39.886Z,60.67
2022-08-01T11:12:44.385Z,59.17
2022-08-01T11:15:29.612Z,58.78
2022-08-01T11:17:38.061Z,57.22
2022-08-01T11:20:08.456Z,55.52
2022-08-01T11:22:12.652Z,54.97
2022-08-01T11:24:15.632Z,53.36
2022-08-01T11:26:28.755Z,51.90
2022-08-01T11:28:35.775Z,53.89
2022-08-01T11:30:39.692Z,54.31
2022-08-01T11:33:10.655Z,53.79
2022-08-01T11:35:11.388Z,56.48
2022-08-01T11:37:30.454Z,55.46
2022-08-01T11:39:38.656Z,58.59
2022-08-01T11:41:45.091Z,59.42
2022-08-01T11:43:58.414Z,58.71
2022-08-01T11:46:02.861Z,58.17
2022-08-01T11:48:20.032Z,58.40
2022-08-01T11:50:33.336Z,57.13
2022-08-01T11:52:41.719Z,58.09
2022-08-01T11:54:46.453Z,58.40
2022-08-01T11:56:49.519Z,60.00
2022-08-01T11:59:01.182Z,60.19
2022-08-01T12:01:03.956Z,58.70
2022-08-01T12:03:08.822Z,58.48
2022-08-01T12:05:14.089Z,59.21
2022-08-01T12:07:17.814Z,60.25
2022-08-01T12:09:25.404Z,55.70
2022-08-01T12:11:36.982Z,54.45
2022-08-01T12:13:44.403Z,53.07
2022-08-01T12:15:48.246Z,54.57
2022-08-01T12:17:58.631Z,53.72
2022-08-01T12:20:02.402Z,53.97
2022-08-01T12:22:13.539Z,54.49
2022-08-01T12:24:25.257Z,53.13
2022-08-01T12:26:41.286Z,52.88
2022-08-01T12:28:44.024Z,52.17
2022-08-01T12:30:49.930Z,52.88
2022-08-01T12:32:53.853Z,54.15
2022-08-01T12:34:57.656Z,52.77
2022-08-01T12:37:04.441Z,54.00
2022-08-01T12:39:08.442Z,53.85
2022-08-01T12:41:13.811Z,54.27
2022-08-01T12:43:26.959Z,55.23
2022-08-01T12:45:34.249Z,56.63
2022-08-01T12:47:38.215Z,57.90
2022-08-01T12:49:44.015Z,55.73
2022-08-01T12:51:57.088Z,56.55
2022-08-01T12:54:01.237Z,57.09
2022-08-01T12:56:04.008Z,54.59
2022-08-01T12:58:15.452Z,53.74
2022-08-01T13:00:22.226Z,53.49
2022-08-01T13:02:34.009Z,54.33
2022-08-01T13:04:51.727Z,54.33
2022-08-01T13:06:55.478Z,54.88
2022-08-01T13:09:06.866Z,54.79
2022-08-01T13:11:10.923Z,53.54
2022-08-01T13:13:22.368Z,51.87
2022-08-01T13:15:33.688Z,50.49
2022-08-01T13:17:39.499Z,48.51
2022-08-01T13:19:45.992Z,48.93
2022-08-01T13:21:59.335Z,51.10
2022-08-01T13:24:04.513Z,51.62
2022-08-01T13:26:07.578Z,53.75
2022-08-01T13:28:18.369Z,53.49
2022-08-01T13:30:22.933Z,53.81
2022-08-01T13:32:28.357Z,54.40
2022-08-01T13:34:33.896Z,53.50
2022-08-01T13:36:36.975Z,53.02
2022-08-01T13:38:57.212Z,53.24
2022-08-01T13:41:00.381Z,54.10
2022-08-01T13:43:03.151Z,54.20
2022-08-01T13:45:14.434Z,54.50
2022-08-01T13:47:17.860Z,52.79
2022-08-01T13:49:20.709Z,52.84
2022-08-01T13:51:25.789Z,52.78
2022-08-01T13:53:28.629Z,52.64
2022-08-01T13:55:34.885Z,53.69
2022-08-01T13:57:38.143Z,54.02
2022-08-01T13:59:40.981Z,53.33
2022-08-01T14:01:45.331Z,53.58
2022-08-01T14:03:48.363Z,53.50
2022-08-01T14:05:51.322Z,53.67
2022-08-01T14:08:01.630Z,52.69
2022-08-01T14:10:19.668Z,52.64
2022-08-01T14:12:23.812Z,51.75
2022-08-01T14:14:26.691Z,52.92
2022-08-01T14:16:30.260Z,52.96
2022-08-01T14:18:34.775Z,51.90
2022-08-01T14:20:41.384Z,52.45
2022-08-01T14:22:44.096Z,51.86
2022-08-01T14:24:46.847Z,50.09
2022-08-01T14:26:50.200Z,50.32
2022-08-01T14:28:53.467Z,52.52
2022-08-01T14:30:57.280Z,51.29
2022-08-01T14:33:00.078Z,51.89
2022-08-01T14:35:06.566Z,53.10
2022-08-01T14:37:09.240Z,53.00
2022-08-01T14:39:14.943Z,53.05
2022-08-01T14:41:18.041Z,52.07
2022-08-01T14:43:27.141Z,51.74
2022-08-01T14:45:33.703Z,50.73
2022-08-01T14:47:37.329Z,51.10
2022-08-01T14:49:45.577Z,51.86
2022-08-01T14:51:49.877Z,52.04
2022-08-01T14:53:53.917Z,52.96
2022-08-01T14:55:57.242Z,51.70
2022-08-01T14:57:59.925Z,50.98
2022-08-01T15:00:03.090Z,50.62
2022-08-01T15:02:06.140Z,51.76
2022-08-01T15:04:09.868Z,51.89
2022-08-01T15:06:13.590Z,51.94
2022-08-01T15:08:17.762Z,52.93
2022-08-01T15:10:20.521Z,53.70
2022-08-01T15:12:23.273Z,53.47
2022-08-01T15:14:43.949Z,53.15
2022-08-01T15:16:46.712Z,53.35
2022-08-01T15:18:49.416Z,53.08
2022-08-01T15:20:52.349Z,53.87
2022-08-01T15:22:55.163Z,53.63
2022-08-01T15:25:00.721Z,53.64
2022-08-01T15:27:03.477Z,52.97
2022-08-01T15:29:06.204Z,53.93
2022-08-01T15:31:13.776Z,53.92
2022-08-01T15:33:17.726Z,52.88
2022-08-01T15:35:20.533Z,53.31
2022-08-01T15:37:23.758Z,53.49
2022-08-01T15:39:26.671Z,52.95
2022-08-01T15:41:30.753Z,52.98
2022-08-01T15:43:33.707Z,51.50
2022-08-01T15:45:47.744Z,51.85
2022-08-01T15:47:51.302Z,51.61
2022-08-01T15:49:54.166Z,51.82
2022-08-01T15:51:57.136Z,51.34
2022-08-01T15:54:03.409Z,51.55
2022-08-01T15:56:06.167Z,51.69
2022-08-01T15:58:11.646Z,53.68
2022-08-01T16:00:15.709Z,52.94
2022-08-01T16:02:18.499Z,53.40
2022-08-01T16:04:21.833Z,52.71
2022-08-01T16:06:33.247Z,53.21
2022-08-01T16:08:36.146Z,52.33
2022-08-01T16:10:38.805Z,52.02
2022-08-01T16:12:41.553Z,52.24
2022-08-01T16:14:45.622Z,52.46
2022-08-01T16:16:48.711Z,52.55
2022-08-01T16:18:53.901Z,53.43
2022-08-01T16:20:58.698Z,53.61
2022-08-01T16:23:01.576Z,53.43
2022-08-01T16:25:04.597Z,52.33
2022-08-01T16:27:08.005Z,52.70
2022-08-01T16:29:10.993Z,53.08
2022-08-01T16:31:21.642Z,52.43
2022-08-01T16:33:51.975Z,52.93
2022-08-01T16:35:57.610Z,53.21
2022-08-01T16:38:01.374Z,53.67
2022-08-01T16:40:04.625Z,53.57
2022-08-01T16:42:08.217Z,54.25
2022-08-01T16:44:11.254Z,53.61
2022-08-01T16:46:15.426Z,53.78
2022-08-01T16:48:19.714Z,53.88
2022-08-01T16:50:28.695Z,53.20
2022-08-01T16:52:31.936Z,53.52
2022-08-01T16:54:34.788Z,53.39
2022-08-01T16:56:37.501Z,53.54
2022-08-01T16:58:40.275Z,54.53
2022-08-01T17:00:44.673Z,54.44
2022-08-01T17:03:00.858Z,54.75
2022-08-01T17:05:21.031Z,56.28
2022-08-01T17:07:24.375Z,54.66
2022-08-01T17:09:27.198Z,55.23
2022-08-01T17:11:30.027Z,55.07
2022-08-01T17:13:33.205Z,55.22
2022-08-01T17:15:36.637Z,55.25
2022-08-01T17:17:39.479Z,54.46
2022-08-01T17:19:44.080Z,54.65
2022-08-01T17:21:46.961Z,55.31
2022-08-01T17:23:49.921Z,54.80
2022-08-01T17:25:52.814Z,55.53
2022-08-01T17:27:56.778Z,55.28
2022-08-01T17:29:59.682Z,55.03
2022-08-01T17:32:02.605Z,55.11
2022-08-01T17:34:05.527Z,55.95
2022-08-01T17:36:09.963Z,56.60
2022-08-01T17:38:12.683Z,57.23
2022-08-01T17:40:39.061Z,56.37
2022-08-01T17:42:39.846Z,57.20
2022-08-01T17:44:48.975Z,56.74
2022-08-01T17:46:52.154Z,56.79
2022-08-01T17:48:54.946Z,57.07
2022-08-01T17:50:57.714Z,57.23
2022-08-01T17:53:01.824Z,57.05
2022-08-01T17:55:06.548Z,56.99
2022-08-01T17:57:29.676Z,56.98
2022-08-01T17:59:32.452Z,57.32
2022-08-01T18:01:35.739Z,57.52
2022-08-01T18:03:40.998Z,57.72
2022-08-01T18:05:44.345Z,58.28
2022-08-01T18:08:01.215Z,58.29
2022-08-01T18:10:07.248Z,58.08
2022-08-01T18:12:15.168Z,58.11
2022-08-01T18:14:17.833Z,58.21
2022-08-01T18:16:20.586Z,58.63
2022-08-01T18:18:33.294Z,58.82
2022-08-01T18:20:36.818Z,57.94
2022-08-01T18:22:39.511Z,58.47
2022-08-01T18:24:42.258Z,58.96
2022-08-01T18:26:47.779Z,59.29
2022-08-01T18:28:50.584Z,59.27
2022-08-01T18:30:53.296Z,59.56
2022-08-01T18:32:56.183Z,59.70
2022-08-01T18:34:59.084Z,59.73
2022-08-01T18:37:02.181Z,60.34
2022-08-01T18:39:10.154Z,60.99
2022-08-01T18:41:14.050Z,60.49
2022-08-01T18:43:18.135Z,60.61
2022-08-01T18:45:20.856Z,60.87
2022-08-01T18:47:23.576Z,60.96
2022-08-01T18:49:26.335Z,60.19
2022-08-01T18:51:29.324Z,61.22
2022-08-01T18:53:31.985Z,62.07
2022-08-01T18:55:34.668Z,61.98
2022-08-01T18:57:42.117Z,61.88
2022-08-01T18:59:46.738Z,61.99
2022-08-01T19:01:49.551Z,62.37
2022-08-01T19:03:52.296Z,62.15
2022-08-01T19:05:55.039Z,63.06
2022-08-01T19:08:06.157Z,62.75
2022-08-01T19:10:11.430Z,64.91
2022-08-01T19:12:14.242Z,67.93
2022-08-01T19:14:17.020Z,75.18
2022-08-01T19:16:21.211Z,78.49
2022-08-01T19:18:24.985Z,78.55
2022-08-01T19:20:27.943Z,77.65
2022-08-01T19:22:30.662Z,78.99
2022-08-01T19:24:33.726Z,81.19
2022-08-01T19:26:37.850Z,85.06
2022-08-01T19:28:46.457Z,85.78
2022-08-01T19:30:53.624Z,86.76
2022-08-01T19:32:57.926Z,88.69
2022-08-01T19:35:05.427Z,92.05
2022-08-01T19:37:08.642Z,88.38
2022-08-01T19:39:11.679Z,92.03
2022-08-01T19:41:16.451Z,90.79
2022-08-01T19:43:22.394Z,92.94
2022-08-01T19:45:25.817Z,94.02
2022-08-01T19:47:51.664Z,97.45
2022-08-01T19:49:52.808Z,100.00
2022-08-01T19:52:01.217Z,100.00
2022-08-01T19:54:07.312Z,100.00
2022-08-01T19:56:11.446Z,100.00
2022-08-01T19:58:27.033Z,100.00
2022-08-01T20:00:31.205Z,100.00
2022-08-01T20:02:35.579Z,100.00
2022-08-01T20:04:38.394Z,100.00
2022-08-01T20:06:42.574Z,100.00
2022-08-01T20:08:46.595Z,100.00
2022-08-01T20:10:49.407Z,100.00
2022-08-01T20:12:54.055Z,100.00
2022-08-01T20:14:56.857Z,100.00
2022-08-01T20:16:59.834Z,100.00
2022-08-01T20:19:02.574Z,100.00
2022-08-01T20:21:06.791Z,100.00
2022-08-01T20:23:18.146Z,100.00
2022-08-01T20:25:23.503Z,100.00
2022-08-01T20:27:28.311Z,100.00
2022-08-01T20:29:32.374Z,100.00
2022-08-01T20:31:43.102Z,100.00
2022-08-01T20:33:49.949Z,100.00
2022-08-01T20:35:54.297Z,100.00
2022-08-01T20:38:06.805Z,100.00
2022-08-01T20:40:12.570Z,100.00
2022-08-01T20:42:16.001Z,100.00
2022-08-01T20:44:20.611Z,100.00
2022-08-01T20:46:25.696Z,100.00
2022-08-01T20:48:31.185Z,100.00
2022-08-01T20:51:06.426Z,100.00
2022-08-01T20:53:09.125Z,100.00
2022-08-01T20:55:13.230Z,100.00
2022-08-01T20:57:23.408Z,100.00
2022-08-01T20:59:51.654Z,100.00
2022-08-01T21:02:03.206Z,100.00
2022-08-01T21:04:15.289Z,100.00
2022-08-01T21:06:23.874Z,100.00
2022-08-01T21:08:36.223Z,100.00
2022-08-01T21:10:41.846Z,100.00
2022-08-01T21:12:49.372Z,100.00
2022-08-01T21:14:54.283Z,100.00
2022-08-01T21:17:00.366Z,100.00
2022-08-01T21:19:21.262Z,100.00
2022-08-01T21:21:27.440Z,100.00
2022-08-01T21:23:35.141Z,100.00
2022-08-01T21:25:42.352Z,100.00
2022-08-01T21:27:47.379Z,100.00
2022-08-01T21:29:51.799Z,100.00
2022-08-01T21:32:09.476Z,100.00
2022-08-01T21:34:12.380Z,100.00
2022-08-01T21:36:18.679Z,100.00
2022-08-01T21:38:21.643Z,100.00
2022-08-01T21:40:25.683Z,100.00
2022-08-01T21:42:29.795Z,100.00
2022-08-01T21:44:33.868Z,100.00
2022-08-01T21:46:37.009Z,100.00
2022-08-01T21:48:40.212Z,100.00
2022-08-01T21:50:46.305Z,100.00
2022-08-01T21:52:55.287Z,100.00
2022-08-01T21:55:10.850Z,100.00
2022-08-01T21:57:26.679Z,100.00
2022-08-01T21:59:46.951Z,100.00
2022-08-01T22:01:54.803Z,100.00
2022-08-01T22:04:00.640Z,100.00
2022-08-01T22:06:04.947Z,100.00
2022-08-01T22:08:11.408Z,100.00
2022-08-01T22:10:17.048Z,100.00
2022-08-01T22:12:21.500Z,100.00
2022-08-01T22:14:26.258Z,100.00
2022-08-01T22:16:33.063Z,100.00
2022-08-01T22:18:37.122Z,100.00
2022-08-01T22:20:40.464Z,100.00
2022-08-01T22:22:51.521Z,100.00
2022-08-01T22:24:55.216Z,100.00
2022-08-01T22:26:58.824Z,100.00
2022-08-01T22:29:02.781Z,100.00
2022-08-01T22:31:07.215Z,100.00
2022-08-01T22:33:16.367Z,100.00
2022-08-01T22:35:20.047Z,100.00
2022-08-01T22:37:56.544Z,100.00
2022-08-01T22:39:46.238Z,100.00
2022-08-01T22:42:02.237Z,100.00
2022-08-01T22:44:10.109Z,100.00
2022-08-01T22:46:25.013Z,100.00
2022-08-01T22:48:38.508Z,100.00
2022-08-01T22:50:46.090Z,100.00
2022-08-01T22:52:56.753Z,100.00
2022-08-01T22:55:06.961Z,100.00
2022-08-01T22:57:13.281Z,100.00
2022-08-01T22:59:20.033Z,100.00
2022-08-01T23:01:25.756Z,100.00
2022-08-01T23:03:34.080Z,100.00
2022-08-01T23:05:42.379Z,100.00
2022-08-01T23:07:56.956Z,100.00
2022-08-01T23:10:00.317Z,100.00
2022-08-01T23:12:04.063Z,100.00
2022-08-01T23:14:06.883Z,100.00
2022-08-01T23:16:09.933Z,100.00
2022-08-01T23:18:12.914Z,100.00
2022-08-01T23:20:17.858Z,100.00
2022-08-01T23:22:20.972Z,100.00
2022-08-01T23:24:24.503Z,100.00
2022-08-01T23:26:30.066Z,100.00
2022-08-01T23:28:33.273Z,100.00
2022-08-01T23:30:36.991Z,100.00
2022-08-01T23:32:39.935Z,100.00
2022-08-01T23:34:42.748Z,100.00
2022-08-01T23:36:46.773Z,100.00
2022-08-01T23:38:49.876Z,100.00
2022-08-01T23:40:52.669Z,100.00
2022-08-01T23:42:55.768Z,100.00
2022-08-01T23:44:58.583Z,100.00
2022-08-01T23:47:01.420Z,100.00
2022-08-01T23:49:04.089Z,100.00
2022-08-01T23:51:09.242Z,100.00
2022-08-01T23:53:13.604Z,100.00
2022-08-01T23:55:16.317Z,100.00
2022-08-01T23:57:19.046Z,100.00
2022-08-01T23:59:21.682Z,100.00
